An Run Da 2 — BHNX — position and weather

sailwx.info

Track history (hours):
 
Tides and Currents Weather Stations Pressure Air Temp Water Temp Dewpoint Dewpoint Depression Visibility Wind Speed Wind Dir Waves Ship Positions

An Run Da 2

Last reported at 2016-May-25 05:31 UTC. Time now 2016-May-30 14:32 UTC.
Position N 32°06' E 119°55'.

Length 147 m; draft 8 m.

Type: Cargo ship. MMSI: 413360230.

Date/timePositionNaut miles runAvg speedWind from/ knotsBaromVisibWave heightAir tempDewpointWater temp
2016-May-25 05:31N 32°06' E 119°55'6 5.9
2016-May-25 04:30N 32°00' E 119°59'5 5.2
2016-May-25 03:29N 31°58' E 120°04'7 6.0
2016-May-25 02:24N 31°56' E 120°11'5 6.1
2016-May-25 01:32N 31°57' E 120°17'7 6.9
2016-May-25 00:33N 32°01' E 120°24'9 7.0
2016-May-24 23:20N 32°01' E 120°34'6 7.5
2016-May-24 22:31N 32°00' E 120°41'8 7.7
2016-May-24 21:25N 31°58' E 120°51'18 8.9
2016-May-24 19:26N 31°45' E 121°05'1010.9
2016-May-24 18:34N 31°39' E 121°13'1111.1
2016-May-24 17:33N 31°31' E 121°23'1211.8
2016-May-24 16:33N 31°24' E 121°34'61 1.2
2016-May-22 15:07N 30°29' E 122°07'6 7.6
2016-May-22 14:18N 30°26' E 122°00'16 7.2
2016-May-22 12:06N 30°13' E 121°50'5 9.8
2016-May-22 11:33N 30°08' E 121°52'9 8.8
2016-May-22 10:33N 30°02' E 121°59'0 0.0
2016-May-21 21:06N 30°02' E 121°59'0 0.0
2016-May-21 13:33N 30°02' E 121°59'5 5.0
2016-May-21 12:34N 29°57' E 122°00'1111.2
2016-May-21 11:33N 29°54' E 122°13'2 0.2
2016-May-21 03:12N 29°54' E 122°15'0 0.0
2016-May-21 01:14N 29°54' E 122°15'0 0.0
2016-May-20 23:07N 29°54' E 122°15'0 0.0
2016-May-20 22:19N 29°54' E 122°15'0 0.2
2016-May-20 21:33N 29°54' E 122°15'0 0.0
2016-May-20 20:33N 29°54' E 122°15'0 0.0
2016-May-20 19:27N 29°54' E 122°15'0 0.0
2016-May-20 17:26N 29°54' E 122°15'0 0.4
2016-May-20 16:30N 29°54' E 122°15'6 5.8
2016-May-20 15:31N 29°48' E 122°15'1010.5
2016-May-20 14:33N 29°39' E 122°20'330 9.4
2016-May-19 03:16N 24°55' E 119°12'8 9.9
2016-May-19 02:29N 24°51' E 119°05'9 9.9
2016-May-19 01:33N 24°46' E 118°56'1010.4
2016-May-19 00:33N 24°41' E 118°46'5 4.8
2016-May-18 23:26N 24°38' E 118°41'0 0.0
2016-May-18 13:25N 24°38' E 118°41'0 0.0
2016-May-18 12:32N 24°38' E 118°41'0 0.0
2016-May-16 09:14N 24°38' E 118°41'1 1.4
2016-May-16 08:33N 24°39' E 118°41'9 8.7
2016-May-16 07:33N 24°43' E 118°50'10 9.9
2016-May-16 06:33N 24°48' E 118°59'1010.3
2016-May-16 05:33N 24°53' E 119°09'  
Track history (hours):
 
Tides and Currents Weather Stations Pressure Air Temp Water Temp Dewpoint Dewpoint Depression Visibility Wind Speed Wind Dir Waves Ship Positions

An Run Da 2

Last reported at 2016-May-25 05:31 UTC. Time now 2016-May-30 14:32 UTC.
Position N 32°06' E 119°55'.

Length 147 m; draft 8 m.

Type: Cargo ship. MMSI: 413360230.

Date/timePositionNaut miles runAvg speedWind from/ knotsBaromVisibWave heightAir tempDewpointWater temp
2016-May-25 05:31N 32°06' E 119°55'6 5.9
2016-May-25 04:30N 32°00' E 119°59'5 5.2
2016-May-25 03:29N 31°58' E 120°04'7 6.0
2016-May-25 02:24N 31°56' E 120°11'5 6.1
2016-May-25 01:32N 31°57' E 120°17'7 6.9
2016-May-25 00:33N 32°01' E 120°24'9 7.0
2016-May-24 23:20N 32°01' E 120°34'6 7.5
2016-May-24 22:31N 32°00' E 120°41'8 7.7
2016-May-24 21:25N 31°58' E 120°51'18 8.9
2016-May-24 19:26N 31°45' E 121°05'1010.9
2016-May-24 18:34N 31°39' E 121°13'1111.1
2016-May-24 17:33N 31°31' E 121°23'1211.8
2016-May-24 16:33N 31°24' E 121°34'61 1.2
2016-May-22 15:07N 30°29' E 122°07'6 7.6
2016-May-22 14:18N 30°26' E 122°00'16 7.2
2016-May-22 12:06N 30°13' E 121°50'5 9.8
2016-May-22 11:33N 30°08' E 121°52'9 8.8
2016-May-22 10:33N 30°02' E 121°59'0 0.0
2016-May-21 21:06N 30°02' E 121°59'0 0.0
2016-May-21 13:33N 30°02' E 121°59'5 5.0
2016-May-21 12:34N 29°57' E 122°00'1111.2
2016-May-21 11:33N 29°54' E 122°13'2 0.2
2016-May-21 03:12N 29°54' E 122°15'0 0.0
2016-May-21 01:14N 29°54' E 122°15'0 0.0
2016-May-20 23:07N 29°54' E 122°15'0 0.0
2016-May-20 22:19N 29°54' E 122°15'0 0.2
2016-May-20 21:33N 29°54' E 122°15'0 0.0
2016-May-20 20:33N 29°54' E 122°15'0 0.0
2016-May-20 19:27N 29°54' E 122°15'0 0.0
2016-May-20 17:26N 29°54' E 122°15'0 0.4
2016-May-20 16:30N 29°54' E 122°15'6 5.8
2016-May-20 15:31N 29°48' E 122°15'1010.5
2016-May-20 14:33N 29°39' E 122°20'330 9.4
2016-May-19 03:16N 24°55' E 119°12'8 9.9
2016-May-19 02:29N 24°51' E 119°05'9 9.9
2016-May-19 01:33N 24°46' E 118°56'1010.4
2016-May-19 00:33N 24°41' E 118°46'5 4.8
2016-May-18 23:26N 24°38' E 118°41'0 0.0
2016-May-18 13:25N 24°38' E 118°41'0 0.0
2016-May-18 12:32N 24°38' E 118°41'0 0.0
2016-May-16 09:14N 24°38' E 118°41'1 1.4
2016-May-16 08:33N 24°39' E 118°41'9 8.7
2016-May-16 07:33N 24°43' E 118°50'10 9.9
2016-May-16 06:33N 24°48' E 118°59'1010.3
2016-May-16 05:33N 24°53' E 119°09'  

Dump ship's entire track history